sensor_id;sensor_type;location;lat;lon;timestamp;P1;durP1;ratioP1;P2;durP2;ratioP2
5630;SDS011;2837;50.990;7.124;2022-12-18T06:03:09;169.80;;;8.23;;
5630;SDS011;2837;50.990;7.124;2022-12-18T06:05:40;170.33;;;8.67;;
5630;SDS011;2837;50.990;7.124;2022-12-18T06:08:08;169.43;;;8.30;;
5630;SDS011;2837;50.990;7.124;2022-12-18T06:10:34;168.47;;;8.27;;
5630;SDS011;2837;50.990;7.124;2022-12-18T06:12:59;169.77;;;8.03;;
5630;SDS011;2837;50.990;7.124;2022-12-18T06:15:25;170.23;;;8.67;;
5630;SDS011;2837;50.990;7.124;2022-12-18T06:17:50;169.33;;;8.57;;
5630;SDS011;2837;50.990;7.124;2022-12-18T06:20:16;171.17;;;8.07;;
5630;SDS011;2837;50.990;7.124;2022-12-18T06:22:42;169.87;;;8.80;;
5630;SDS011;2837;50.990;7.124;2022-12-18T06:25:07;170.13;;;8.30;;
5630;SDS011;2837;50.990;7.124;2022-12-18T06:27:33;170.70;;;8.60;;
5630;SDS011;2837;50.990;7.124;2022-12-18T06:29:59;170.03;;;8.70;;
5630;SDS011;2837;50.990;7.124;2022-12-18T06:32:25;168.87;;;8.50;;
5630;SDS011;2837;50.990;7.124;2022-12-18T06:34:51;170.77;;;8.87;;
5630;SDS011;2837;50.990;7.124;2022-12-18T06:37:16;169.73;;;8.70;;
5630;SDS011;2837;50.990;7.124;2022-12-18T06:39:42;170.47;;;8.77;;
5630;SDS011;2837;50.990;7.124;2022-12-18T06:42:07;170.97;;;8.90;;
5630;SDS011;2837;50.990;7.124;2022-12-18T06:44:33;170.87;;;9.03;;
5630;SDS011;2837;50.990;7.124;2022-12-18T06:46:59;169.80;;;8.70;;
5630;SDS011;2837;50.990;7.124;2022-12-18T06:49:24;170.90;;;8.83;;
5630;SDS011;2837;50.990;7.124;2022-12-18T06:51:50;170.57;;;8.50;;
5630;SDS011;2837;50.990;7.124;2022-12-18T06:54:15;170.50;;;8.50;;
5630;SDS011;2837;50.990;7.124;2022-12-18T06:56:41;171.77;;;8.80;;
5630;SDS011;2837;50.990;7.124;2022-12-18T06:59:06;170.33;;;8.77;;
5630;SDS011;2837;50.990;7.124;2022-12-18T07:01:32;170.27;;;8.47;;
5630;SDS011;2837;50.990;7.124;2022-12-18T07:03:57;170.20;;;8.47;;
5630;SDS011;2837;50.990;7.124;2022-12-18T07:06:24;170.97;;;8.70;;
5630;SDS011;2837;50.990;7.124;2022-12-18T07:08:50;171.83;;;8.50;;
5630;SDS011;2837;50.990;7.124;2022-12-18T07:11:18;170.93;;;9.20;;
5630;SDS011;2837;50.990;7.124;2022-12-18T07:13:44;170.17;;;8.80;;
5630;SDS011;2837;50.990;7.124;2022-12-18T07:16:11;171.37;;;9.13;;
5630;SDS011;2837;50.990;7.124;2022-12-18T07:18:38;169.97;;;8.30;;
5630;SDS011;2837;50.990;7.124;2022-12-18T07:21:05;170.07;;;8.90;;
5630;SDS011;2837;50.990;7.124;2022-12-18T07:23:32;171.10;;;9.27;;
5630;SDS011;2837;50.990;7.124;2022-12-18T07:26:03;170.17;;;8.87;;
5630;SDS011;2837;50.990;7.124;2022-12-18T07:28:29;169.37;;;8.37;;
5630;SDS011;2837;50.990;7.124;2022-12-18T07:30:55;173.57;;;9.57;;
5630;SDS011;2837;50.990;7.124;2022-12-18T07:33:20;171.37;;;8.70;;
5630;SDS011;2837;50.990;7.124;2022-12-18T07:35:46;170.93;;;8.97;;
5630;SDS011;2837;50.990;7.124;2022-12-18T07:38:11;168.80;;;8.03;;
5630;SDS011;2837;50.990;7.124;2022-12-18T07:40:37;170.00;;;8.43;;
5630;SDS011;2837;50.990;7.124;2022-12-18T07:43:03;170.83;;;8.87;;
5630;SDS011;2837;50.990;7.124;2022-12-18T07:45:29;173.20;;;8.87;;
5630;SDS011;2837;50.990;7.124;2022-12-18T07:47:54;171.97;;;9.43;;
5630;SDS011;2837;50.990;7.124;2022-12-18T07:50:20;170.53;;;9.07;;
5630;SDS011;2837;50.990;7.124;2022-12-18T07:52:45;168.87;;;8.27;;
5630;SDS011;2837;50.990;7.124;2022-12-18T07:55:11;169.87;;;8.90;;
5630;SDS011;2837;50.990;7.124;2022-12-18T07:57:37;169.60;;;8.73;;
5630;SDS011;2837;50.990;7.124;2022-12-18T08:00:03;170.87;;;8.47;;
5630;SDS011;2837;50.990;7.124;2022-12-18T08:02:30;171.37;;;9.30;;
5630;SDS011;2837;50.990;7.124;2022-12-18T08:04:56;169.57;;;9.00;;
5630;SDS011;2837;50.990;7.124;2022-12-18T08:07:23;170.43;;;9.23;;
5630;SDS011;2837;50.990;7.124;2022-12-18T08:09:48;169.17;;;9.10;;
5630;SDS011;2837;50.990;7.124;2022-12-18T08:12:14;171.50;;;9.27;;
5630;SDS011;2837;50.990;7.124;2022-12-18T08:14:40;170.17;;;8.90;;
5630;SDS011;2837;50.990;7.124;2022-12-18T08:17:05;169.73;;;8.60;;
5630;SDS011;2837;50.990;7.124;2022-12-18T08:19:31;169.97;;;8.57;;
5630;SDS011;2837;50.990;7.124;2022-12-18T08:21:56;169.93;;;8.90;;
5630;SDS011;2837;50.990;7.124;2022-12-18T08:24:22;170.07;;;8.30;;
5630;SDS011;2837;50.990;7.124;2022-12-18T08:26:47;170.77;;;8.60;;
5630;SDS011;2837;50.990;7.124;2022-12-18T08:29:13;170.67;;;8.87;;
5630;SDS011;2837;50.990;7.124;2022-12-18T08:31:39;168.80;;;8.63;;
5630;SDS011;2837;50.990;7.124;2022-12-18T08:34:04;169.43;;;8.50;;
5630;SDS011;2837;50.990;7.124;2022-12-18T08:36:30;169.50;;;8.43;;
5630;SDS011;2837;50.990;7.124;2022-12-18T08:38:56;170.53;;;9.10;;
5630;SDS011;2837;50.990;7.124;2022-12-18T08:41:22;169.97;;;8.80;;
5630;SDS011;2837;50.990;7.124;2022-12-18T08:43:48;169.83;;;8.40;;
5630;SDS011;2837;50.990;7.124;2022-12-18T08:46:42;169.53;;;8.67;;
5630;SDS011;2837;50.990;7.124;2022-12-18T08:49:08;170.07;;;9.40;;
5630;SDS011;2837;50.990;7.124;2022-12-18T08:51:35;171.30;;;9.07;;
5630;SDS011;2837;50.990;7.124;2022-12-18T08:54:01;170.67;;;9.40;;
5630;SDS011;2837;50.990;7.124;2022-12-18T08:56:27;170.67;;;8.57;;
5630;SDS011;2837;50.990;7.124;2022-12-18T08:58:53;169.67;;;8.73;;
5630;SDS011;2837;50.990;7.124;2022-12-18T09:01:19;169.90;;;8.60;;
5630;SDS011;2837;50.990;7.124;2022-12-18T09:03:45;168.87;;;8.37;;
5630;SDS011;2837;50.990;7.124;2022-12-18T09:06:13;168.30;;;8.50;;
5630;SDS011;2837;50.990;7.124;2022-12-18T09:08:39;170.13;;;9.17;;
5630;SDS011;2837;50.990;7.124;2022-12-18T09:11:09;169.67;;;9.27;;
5630;SDS011;2837;50.990;7.124;2022-12-18T09:13:38;169.67;;;9.30;;
5630;SDS011;2837;50.990;7.124;2022-12-18T09:16:04;169.07;;;8.67;;
5630;SDS011;2837;50.990;7.124;2022-12-18T09:18:29;168.67;;;9.20;;
5630;SDS011;2837;50.990;7.124;2022-12-18T09:20:55;168.10;;;8.20;;
5630;SDS011;2837;50.990;7.124;2022-12-18T09:23:21;168.87;;;8.73;;
5630;SDS011;2837;50.990;7.124;2022-12-18T09:25:47;169.57;;;8.97;;
5630;SDS011;2837;50.990;7.124;2022-12-18T09:28:13;169.23;;;9.00;;
5630;SDS011;2837;50.990;7.124;2022-12-18T09:30:42;168.47;;;8.30;;
5630;SDS011;2837;50.990;7.124;2022-12-18T09:33:09;169.17;;;9.27;;
5630;SDS011;2837;50.990;7.124;2022-12-18T09:35:36;169.43;;;8.37;;
5630;SDS011;2837;50.990;7.124;2022-12-18T09:38:05;168.80;;;8.37;;
5630;SDS011;2837;50.990;7.124;2022-12-18T09:40:33;168.73;;;8.77;;
5630;SDS011;2837;50.990;7.124;2022-12-18T09:43:18;168.17;;;8.37;;
5630;SDS011;2837;50.990;7.124;2022-12-18T09:45:59;170.60;;;8.17;;
5630;SDS011;2837;50.990;7.124;2022-12-18T09:48:36;168.87;;;8.50;;
5630;SDS011;2837;50.990;7.124;2022-12-18T09:51:11;170.20;;;9.47;;
5630;SDS011;2837;50.990;7.124;2022-12-18T09:53:58;169.57;;;8.37;;
5630;SDS011;2837;50.990;7.124;2022-12-18T09:56:31;168.43;;;8.60;;
5630;SDS011;2837;50.990;7.124;2022-12-18T09:59:02;169.23;;;9.50;;
5630;SDS011;2837;50.990;7.124;2022-12-18T10:01:29;167.60;;;8.17;;
5630;SDS011;2837;50.990;7.124;2022-12-18T10:03:56;169.77;;;8.60;;
5630;SDS011;2837;50.990;7.124;2022-12-18T10:14:40;167.37;;;8.10;;
5630;SDS011;2837;50.990;7.124;2022-12-18T10:17:13;166.63;;;7.83;;
5630;SDS011;2837;50.990;7.124;2022-12-18T10:19:58;166.43;;;8.00;;
5630;SDS011;2837;50.990;7.124;2022-12-18T10:27:55;168.27;;;8.67;;
5630;SDS011;2837;50.990;7.124;2022-12-18T10:30:24;174.97;;;8.50;;
5630;SDS011;2837;50.990;7.124;2022-12-18T10:32:50;167.50;;;8.13;;
5630;SDS011;2837;50.990;7.124;2022-12-18T10:35:24;172.57;;;9.03;;
5630;SDS011;2837;50.990;7.124;2022-12-18T10:38:05;167.27;;;8.33;;
5630;SDS011;2837;50.990;7.124;2022-12-18T10:40:31;166.50;;;8.27;;
5630;SDS011;2837;50.990;7.124;2022-12-18T10:43:13;165.70;;;8.23;;
5630;SDS011;2837;50.990;7.124;2022-12-18T10:45:40;166.47;;;8.50;;
5630;SDS011;2837;50.990;7.124;2022-12-18T10:48:19;167.67;;;8.60;;
5630;SDS011;2837;50.990;7.124;2022-12-18T10:50:47;166.60;;;8.70;;
5630;SDS011;2837;50.990;7.124;2022-12-18T10:53:34;166.80;;;8.50;;
5630;SDS011;2837;50.990;7.124;2022-12-18T10:56:02;167.87;;;8.97;;
5630;SDS011;2837;50.990;7.124;2022-12-18T10:58:31;168.10;;;8.57;;
5630;SDS011;2837;50.990;7.124;2022-12-18T11:03:34;169.43;;;8.40;;
5630;SDS011;2837;50.990;7.124;2022-12-18T11:06:06;168.30;;;9.00;;
5630;SDS011;2837;50.990;7.124;2022-12-18T11:08:35;166.67;;;8.20;;
5630;SDS011;2837;50.990;7.124;2022-12-18T11:11:00;166.27;;;8.60;;
5630;SDS011;2837;50.990;7.124;2022-12-18T11:13:28;168.97;;;9.00;;
5630;SDS011;2837;50.990;7.124;2022-12-18T11:15:55;166.67;;;8.97;;
5630;SDS011;2837;50.990;7.124;2022-12-18T11:21:27;167.27;;;8.67;;
5630;SDS011;2837;50.990;7.124;2022-12-18T11:23:50;169.00;;;8.77;;
5630;SDS011;2837;50.990;7.124;2022-12-18T11:26:17;167.57;;;8.90;;
5630;SDS011;2837;50.990;7.124;2022-12-18T11:28:44;167.13;;;8.87;;
5630;SDS011;2837;50.990;7.124;2022-12-18T11:33:58;166.27;;;8.77;;
5630;SDS011;2837;50.990;7.124;2022-12-18T11:36:47;168.10;;;9.17;;
5630;SDS011;2837;50.990;7.124;2022-12-18T11:41:56;169.47;;;9.60;;
5630;SDS011;2837;50.990;7.124;2022-12-18T11:50:16;166.17;;;8.47;;
5630;SDS011;2837;50.990;7.124;2022-12-18T11:53:02;167.07;;;9.60;;
5630;SDS011;2837;50.990;7.124;2022-12-18T11:58:19;167.47;;;8.73;;
5630;SDS011;2837;50.990;7.124;2022-12-18T12:01:07;168.40;;;9.10;;
5630;SDS011;2837;50.990;7.124;2022-12-18T12:09:07;168.37;;;9.40;;
5630;SDS011;2837;50.990;7.124;2022-12-18T12:12:04;167.27;;;9.10;;
5630;SDS011;2837;50.990;7.124;2022-12-18T12:15:04;168.07;;;9.43;;
5630;SDS011;2837;50.990;7.124;2022-12-18T12:17:42;169.87;;;9.10;;
5630;SDS011;2837;50.990;7.124;2022-12-18T12:22:53;167.60;;;9.20;;
5630;SDS011;2837;50.990;7.124;2022-12-18T12:28:18;169.30;;;9.60;;
5630;SDS011;2837;50.990;7.124;2022-12-18T12:36:17;169.47;;;9.50;;
5630;SDS011;2837;50.990;7.124;2022-12-18T12:38:59;167.13;;;9.20;;
5630;SDS011;2837;50.990;7.124;2022-12-18T12:41:30;170.97;;;9.60;;
5630;SDS011;2837;50.990;7.124;2022-12-18T12:44:28;169.63;;;9.73;;
5630;SDS011;2837;50.990;7.124;2022-12-18T12:47:27;170.27;;;9.80;;
5630;SDS011;2837;50.990;7.124;2022-12-18T12:49:53;167.47;;;9.47;;
5630;SDS011;2837;50.990;7.124;2022-12-18T12:54:57;170.10;;;9.90;;
5630;SDS011;2837;50.990;7.124;2022-12-18T13:00:16;169.67;;;9.70;;
5630;SDS011;2837;50.990;7.124;2022-12-18T13:08:22;171.83;;;10.23;;
5630;SDS011;2837;50.990;7.124;2022-12-18T13:10:53;168.87;;;9.57;;
5630;SDS011;2837;50.990;7.124;2022-12-18T13:16:44;169.67;;;10.07;;
5630;SDS011;2837;50.990;7.124;2022-12-18T13:19:18;172.63;;;10.20;;
5630;SDS011;2837;50.990;7.124;2022-12-18T13:21:52;170.57;;;10.00;;
5630;SDS011;2837;50.990;7.124;2022-12-18T13:24:24;169.43;;;10.07;;
5630;SDS011;2837;50.990;7.124;2022-12-18T13:26:52;169.17;;;9.73;;
5630;SDS011;2837;50.990;7.124;2022-12-18T13:32:23;170.63;;;10.00;;
5630;SDS011;2837;50.990;7.124;2022-12-18T13:37:50;168.60;;;9.80;;
5630;SDS011;2837;50.990;7.124;2022-12-18T13:48:26;169.23;;;10.00;;
5630;SDS011;2837;50.990;7.124;2022-12-18T13:51:01;169.43;;;10.20;;
5630;SDS011;2837;50.990;7.124;2022-12-18T13:56:42;172.00;;;10.30;;
5630;SDS011;2837;50.990;7.124;2022-12-18T13:59:17;171.37;;;10.63;;
5630;SDS011;2837;50.990;7.124;2022-12-18T14:01:54;170.90;;;9.87;;
5630;SDS011;2837;50.990;7.124;2022-12-18T14:06:53;168.90;;;9.70;;
5630;SDS011;2837;50.990;7.124;2022-12-18T14:09:27;169.27;;;10.20;;
5630;SDS011;2837;50.990;7.124;2022-12-18T14:11:55;171.20;;;10.53;;
5630;SDS011;2837;50.990;7.124;2022-12-18T14:14:42;170.67;;;10.17;;
5630;SDS011;2837;50.990;7.124;2022-12-18T14:17:12;170.27;;;10.80;;
5630;SDS011;2837;50.990;7.124;2022-12-18T14:19:46;169.97;;;10.30;;
5630;SDS011;2837;50.990;7.124;2022-12-18T14:22:14;171.50;;;10.03;;
5630;SDS011;2837;50.990;7.124;2022-12-18T14:24:45;169.37;;;10.30;;
5630;SDS011;2837;50.990;7.124;2022-12-18T14:27:12;172.93;;;10.93;;
5630;SDS011;2837;50.990;7.124;2022-12-18T14:29:45;169.87;;;10.70;;
5630;SDS011;2837;50.990;7.124;2022-12-18T14:32:15;171.20;;;10.17;;
5630;SDS011;2837;50.990;7.124;2022-12-18T14:34:48;170.57;;;10.20;;
5630;SDS011;2837;50.990;7.124;2022-12-18T14:37:25;172.67;;;10.50;;
5630;SDS011;2837;50.990;7.124;2022-12-18T14:39:53;173.03;;;10.73;;
5630;SDS011;2837;50.990;7.124;2022-12-18T14:42:19;172.33;;;11.20;;
5630;SDS011;2837;50.990;7.124;2022-12-18T14:44:44;170.17;;;10.57;;
5630;SDS011;2837;50.990;7.124;2022-12-18T14:47:14;172.10;;;10.53;;
5630;SDS011;2837;50.990;7.124;2022-12-18T14:49:41;170.70;;;10.47;;
5630;SDS011;2837;50.990;7.124;2022-12-18T14:52:23;171.17;;;9.83;;
5630;SDS011;2837;50.990;7.124;2022-12-18T14:54:52;175.73;;;11.23;;
5630;SDS011;2837;50.990;7.124;2022-12-18T14:57:22;170.57;;;11.17;;
5630;SDS011;2837;50.990;7.124;2022-12-18T14:59:50;170.60;;;10.80;;
5630;SDS011;2837;50.990;7.124;2022-12-18T15:02:25;170.60;;;10.70;;
5630;SDS011;2837;50.990;7.124;2022-12-18T15:04:59;171.77;;;10.97;;
5630;SDS011;2837;50.990;7.124;2022-12-18T15:07:34;170.87;;;10.57;;
5630;SDS011;2837;50.990;7.124;2022-12-18T15:12:43;171.43;;;10.73;;
5630;SDS011;2837;50.990;7.124;2022-12-18T15:17:59;172.27;;;10.70;;
5630;SDS011;2837;50.990;7.124;2022-12-18T15:20:29;174.00;;;11.47;;
5630;SDS011;2837;50.990;7.124;2022-12-18T15:22:57;173.60;;;11.20;;
5630;SDS011;2837;50.990;7.124;2022-12-18T15:25:28;173.07;;;11.23;;
5630;SDS011;2837;50.990;7.124;2022-12-18T15:27:59;171.93;;;11.07;;
5630;SDS011;2837;50.990;7.124;2022-12-18T15:30:24;171.73;;;10.60;;
5630;SDS011;2837;50.990;7.124;2022-12-18T15:32:50;174.07;;;10.60;;
5630;SDS011;2837;50.990;7.124;2022-12-18T15:35:19;172.40;;;11.23;;
5630;SDS011;2837;50.990;7.124;2022-12-18T15:37:47;173.03;;;11.07;;
5630;SDS011;2837;50.990;7.124;2022-12-18T15:40:14;172.97;;;11.03;;
5630;SDS011;2837;50.990;7.124;2022-12-18T15:42:45;173.53;;;11.60;;
5630;SDS011;2837;50.990;7.124;2022-12-18T15:45:30;172.20;;;10.80;;
5630;SDS011;2837;50.990;7.124;2022-12-18T15:47:57;172.93;;;11.70;;
5630;SDS011;2837;50.990;7.124;2022-12-18T15:50:22;174.20;;;11.30;;
5630;SDS011;2837;50.990;7.124;2022-12-18T15:52:49;173.30;;;11.37;;
5630;SDS011;2837;50.990;7.124;2022-12-18T15:55:20;171.70;;;10.70;;
5630;SDS011;2837;50.990;7.124;2022-12-18T15:58:06;174.07;;;11.50;;
5630;SDS011;2837;50.990;7.124;2022-12-18T16:00:32;172.63;;;10.83;;
5630;SDS011;2837;50.990;7.124;2022-12-18T16:03:00;175.70;;;12.50;;
5630;SDS011;2837;50.990;7.124;2022-12-18T16:05:26;170.90;;;10.67;;
5630;SDS011;2837;50.990;7.124;2022-12-18T16:07:52;171.83;;;11.00;;
5630;SDS011;2837;50.990;7.124;2022-12-18T16:10:18;171.90;;;10.97;;
5630;SDS011;2837;50.990;7.124;2022-12-18T16:12:44;173.30;;;11.93;;
5630;SDS011;2837;50.990;7.124;2022-12-18T16:15:10;174.77;;;11.60;;
5630;SDS011;2837;50.990;7.124;2022-12-18T16:17:40;173.40;;;12.40;;
5630;SDS011;2837;50.990;7.124;2022-12-18T16:20:14;175.57;;;11.47;;
5630;SDS011;2837;50.990;7.124;2022-12-18T16:22:41;176.60;;;12.20;;
5630;SDS011;2837;50.990;7.124;2022-12-18T16:25:15;176.87;;;13.50;;
5630;SDS011;2837;50.990;7.124;2022-12-18T16:27:46;179.33;;;12.90;;
5630;SDS011;2837;50.990;7.124;2022-12-18T16:30:13;176.70;;;13.47;;
5630;SDS011;2837;50.990;7.124;2022-12-18T16:32:43;174.07;;;12.20;;
5630;SDS011;2837;50.990;7.124;2022-12-18T16:35:09;176.57;;;12.10;;
5630;SDS011;2837;50.990;7.124;2022-12-18T16:37:39;177.07;;;12.77;;
5630;SDS011;2837;50.990;7.124;2022-12-18T16:40:06;176.03;;;12.13;;
5630;SDS011;2837;50.990;7.124;2022-12-18T16:42:33;175.53;;;12.10;;
5630;SDS011;2837;50.990;7.124;2022-12-18T16:45:03;175.70;;;13.00;;
5630;SDS011;2837;50.990;7.124;2022-12-18T16:47:29;185.80;;;15.00;;
5630;SDS011;2837;50.990;7.124;2022-12-18T16:49:55;177.57;;;11.90;;
5630;SDS011;2837;50.990;7.124;2022-12-18T16:52:20;177.83;;;12.47;;
5630;SDS011;2837;50.990;7.124;2022-12-18T16:54:46;176.60;;;12.80;;
5630;SDS011;2837;50.990;7.124;2022-12-18T16:57:12;175.30;;;12.33;;
5630;SDS011;2837;50.990;7.124;2022-12-18T16:59:40;176.87;;;13.37;;
5630;SDS011;2837;50.990;7.124;2022-12-18T17:02:10;174.57;;;12.57;;
5630;SDS011;2837;50.990;7.124;2022-12-18T17:04:39;184.57;;;15.97;;
5630;SDS011;2837;50.990;7.124;2022-12-18T17:07:05;175.00;;;13.10;;
5630;SDS011;2837;50.990;7.124;2022-12-18T17:09:30;174.00;;;12.13;;
5630;SDS011;2837;50.990;7.124;2022-12-18T17:11:56;179.60;;;12.97;;
5630;SDS011;2837;50.990;7.124;2022-12-18T17:14:22;173.87;;;11.77;;
5630;SDS011;2837;50.990;7.124;2022-12-18T17:16:49;177.10;;;12.60;;
5630;SDS011;2837;50.990;7.124;2022-12-18T17:19:15;175.60;;;11.53;;
5630;SDS011;2837;50.990;7.124;2022-12-18T17:21:41;174.37;;;11.90;;
5630;SDS011;2837;50.990;7.124;2022-12-18T17:24:12;176.27;;;11.97;;
5630;SDS011;2837;50.990;7.124;2022-12-18T17:26:37;175.93;;;11.57;;
5630;SDS011;2837;50.990;7.124;2022-12-18T17:29:03;176.00;;;12.50;;
5630;SDS011;2837;50.990;7.124;2022-12-18T17:31:29;177.30;;;12.53;;
5630;SDS011;2837;50.990;7.124;2022-12-18T17:33:55;176.57;;;12.67;;
5630;SDS011;2837;50.990;7.124;2022-12-18T17:36:22;174.97;;;11.50;;
5630;SDS011;2837;50.990;7.124;2022-12-18T17:38:49;181.23;;;14.60;;
5630;SDS011;2837;50.990;7.124;2022-12-18T17:41:16;178.37;;;12.63;;
5630;SDS011;2837;50.990;7.124;2022-12-18T17:43:42;175.57;;;12.10;;
5630;SDS011;2837;50.990;7.124;2022-12-18T17:46:10;181.00;;;13.20;;
5630;SDS011;2837;50.990;7.124;2022-12-18T17:48:37;174.53;;;11.43;;
5630;SDS011;2837;50.990;7.124;2022-12-18T17:51:04;175.43;;;12.30;;
5630;SDS011;2837;50.990;7.124;2022-12-18T17:53:32;174.10;;;11.30;;
5630;SDS011;2837;50.990;7.124;2022-12-18T17:55:58;177.80;;;12.13;;
5630;SDS011;2837;50.990;7.124;2022-12-18T17:58:29;177.60;;;12.70;;
5630;SDS011;2837;50.990;7.124;2022-12-18T18:00:56;178.30;;;12.90;;
5630;SDS011;2837;50.990;7.124;2022-12-18T18:03:24;174.27;;;11.47;;
5630;SDS011;2837;50.990;7.124;2022-12-18T18:05:54;175.03;;;11.87;;
5630;SDS011;2837;50.990;7.124;2022-12-18T18:08:20;175.43;;;11.73;;
5630;SDS011;2837;50.990;7.124;2022-12-18T18:10:46;176.27;;;12.30;;
5630;SDS011;2837;50.990;7.124;2022-12-18T18:13:17;177.17;;;11.17;;
5630;SDS011;2837;50.990;7.124;2022-12-18T18:16:08;177.37;;;13.23;;
5630;SDS011;2837;50.990;7.124;2022-12-18T18:18:35;181.37;;;13.77;;
5630;SDS011;2837;50.990;7.124;2022-12-18T18:21:05;178.30;;;12.40;;
5630;SDS011;2837;50.990;7.124;2022-12-18T18:23:33;178.10;;;12.10;;
5630;SDS011;2837;50.990;7.124;2022-12-18T18:26:02;178.47;;;12.63;;
5630;SDS011;2837;50.990;7.124;2022-12-18T18:28:29;178.07;;;13.33;;
5630;SDS011;2837;50.990;7.124;2022-12-18T18:30:55;178.53;;;14.03;;
5630;SDS011;2837;50.990;7.124;2022-12-18T18:33:20;179.03;;;13.57;;
5630;SDS011;2837;50.990;7.124;2022-12-18T18:35:46;177.27;;;12.03;;
5630;SDS011;2837;50.990;7.124;2022-12-18T18:38:11;178.47;;;12.50;;
5630;SDS011;2837;50.990;7.124;2022-12-18T18:40:37;179.77;;;13.77;;
5630;SDS011;2837;50.990;7.124;2022-12-18T18:43:02;178.83;;;13.30;;
5630;SDS011;2837;50.990;7.124;2022-12-18T18:45:28;177.70;;;12.80;;
5630;SDS011;2837;50.990;7.124;2022-12-18T18:47:53;180.70;;;14.97;;
5630;SDS011;2837;50.990;7.124;2022-12-18T18:50:19;181.00;;;13.30;;
5630;SDS011;2837;50.990;7.124;2022-12-18T18:52:44;177.57;;;13.50;;
5630;SDS011;2837;50.990;7.124;2022-12-18T18:55:10;182.10;;;14.03;;
5630;SDS011;2837;50.990;7.124;2022-12-18T18:57:36;174.67;;;12.17;;
5630;SDS011;2837;50.990;7.124;2022-12-18T19:00:02;179.73;;;13.80;;
5630;SDS011;2837;50.990;7.124;2022-12-18T19:02:28;179.13;;;12.23;;
5630;SDS011;2837;50.990;7.124;2022-12-18T19:04:53;177.97;;;12.60;;
5630;SDS011;2837;50.990;7.124;2022-12-18T19:07:19;181.77;;;13.17;;
5630;SDS011;2837;50.990;7.124;2022-12-18T19:09:44;177.97;;;12.80;;
5630;SDS011;2837;50.990;7.124;2022-12-18T19:12:15;178.53;;;12.33;;
5630;SDS011;2837;50.990;7.124;2022-12-18T19:15:00;176.97;;;12.40;;
5630;SDS011;2837;50.990;7.124;2022-12-18T19:17:26;175.80;;;12.10;;
5630;SDS011;2837;50.990;7.124;2022-12-18T19:19:52;176.37;;;12.47;;
5630;SDS011;2837;50.990;7.124;2022-12-18T19:22:18;175.87;;;12.60;;
5630;SDS011;2837;50.990;7.124;2022-12-18T19:24:43;174.90;;;11.77;;
5630;SDS011;2837;50.990;7.124;2022-12-18T19:27:09;179.23;;;12.23;;
5630;SDS011;2837;50.990;7.124;2022-12-18T19:29:35;176.37;;;12.43;;
5630;SDS011;2837;50.990;7.124;2022-12-18T19:32:01;174.73;;;11.80;;
5630;SDS011;2837;50.990;7.124;2022-12-18T19:34:27;175.10;;;12.40;;
5630;SDS011;2837;50.990;7.124;2022-12-18T19:36:53;176.20;;;12.87;;
5630;SDS011;2837;50.990;7.124;2022-12-18T19:39:18;183.13;;;14.07;;
5630;SDS011;2837;50.990;7.124;2022-12-18T19:41:44;176.90;;;13.37;;
5630;SDS011;2837;50.990;7.124;2022-12-18T19:44:11;178.33;;;12.70;;
5630;SDS011;2837;50.990;7.124;2022-12-18T19:46:41;175.57;;;12.77;;
5630;SDS011;2837;50.990;7.124;2022-12-18T19:49:07;177.10;;;12.57;;
5630;SDS011;2837;50.990;7.124;2022-12-18T19:51:34;175.53;;;13.33;;
5630;SDS011;2837;50.990;7.124;2022-12-18T19:53:59;176.53;;;12.93;;
5630;SDS011;2837;50.990;7.124;2022-12-18T19:56:26;177.57;;;13.10;;
5630;SDS011;2837;50.990;7.124;2022-12-18T19:58:53;179.27;;;14.40;;
5630;SDS011;2837;50.990;7.124;2022-12-18T20:01:20;178.13;;;13.47;;
5630;SDS011;2837;50.990;7.124;2022-12-18T20:03:47;177.43;;;13.23;;
5630;SDS011;2837;50.990;7.124;2022-12-18T20:08:44;175.47;;;12.03;;
5630;SDS011;2837;50.990;7.124;2022-12-18T20:11:10;174.57;;;12.13;;
5630;SDS011;2837;50.990;7.124;2022-12-18T20:13:36;177.93;;;12.80;;
5630;SDS011;2837;50.990;7.124;2022-12-18T20:16:02;177.43;;;13.20;;
5630;SDS011;2837;50.990;7.124;2022-12-18T20:18:27;178.57;;;12.93;;
5630;SDS011;2837;50.990;7.124;2022-12-18T20:20:53;177.30;;;12.60;;
5630;SDS011;2837;50.990;7.124;2022-12-18T20:23:19;176.07;;;12.93;;
5630;SDS011;2837;50.990;7.124;2022-12-18T20:25:46;174.43;;;11.77;;
5630;SDS011;2837;50.990;7.124;2022-12-18T20:28:12;176.53;;;12.97;;
5630;SDS011;2837;50.990;7.124;2022-12-18T20:30:37;175.13;;;12.50;;
5630;SDS011;2837;50.990;7.124;2022-12-18T20:33:03;176.43;;;12.90;;
5630;SDS011;2837;50.990;7.124;2022-12-18T20:35:30;175.17;;;12.53;;
5630;SDS011;2837;50.990;7.124;2022-12-18T20:37:56;175.63;;;12.50;;
5630;SDS011;2837;50.990;7.124;2022-12-18T20:40:22;178.93;;;12.40;;
5630;SDS011;2837;50.990;7.124;2022-12-18T20:42:48;179.03;;;13.60;;
5630;SDS011;2837;50.990;7.124;2022-12-18T20:45:14;175.50;;;12.47;;
5630;SDS011;2837;50.990;7.124;2022-12-18T20:47:40;174.47;;;12.40;;
5630;SDS011;2837;50.990;7.124;2022-12-18T20:50:05;174.47;;;13.20;;
5630;SDS011;2837;50.990;7.124;2022-12-18T20:52:32;176.43;;;13.60;;
5630;SDS011;2837;50.990;7.124;2022-12-18T20:54:57;182.20;;;16.87;;
5630;SDS011;2837;50.990;7.124;2022-12-18T20:57:23;177.17;;;12.47;;
5630;SDS011;2837;50.990;7.124;2022-12-18T20:59:49;178.37;;;13.10;;
5630;SDS011;2837;50.990;7.124;2022-12-18T21:02:15;175.07;;;11.93;;
5630;SDS011;2837;50.990;7.124;2022-12-18T21:04:40;174.40;;;12.40;;
5630;SDS011;2837;50.990;7.124;2022-12-18T21:07:06;174.87;;;11.77;;
5630;SDS011;2837;50.990;7.124;2022-12-18T21:09:31;178.30;;;12.47;;
5630;SDS011;2837;50.990;7.124;2022-12-18T21:11:57;176.97;;;12.30;;
5630;SDS011;2837;50.990;7.124;2022-12-18T21:14:42;175.63;;;11.40;;
5630;SDS011;2837;50.990;7.124;2022-12-18T21:17:08;172.57;;;12.23;;
5630;SDS011;2837;50.990;7.124;2022-12-18T21:19:34;174.97;;;12.57;;
5630;SDS011;2837;50.990;7.124;2022-12-18T21:22:00;180.93;;;13.27;;
5630;SDS011;2837;50.990;7.124;2022-12-18T21:24:26;173.07;;;11.60;;
5630;SDS011;2837;50.990;7.124;2022-12-18T21:26:52;174.03;;;11.80;;
5630;SDS011;2837;50.990;7.124;2022-12-18T21:29:22;177.03;;;13.67;;
5630;SDS011;2837;50.990;7.124;2022-12-18T21:31:49;180.83;;;15.97;;
5630;SDS011;2837;50.990;7.124;2022-12-18T21:34:16;178.37;;;13.47;;
5630;SDS011;2837;50.990;7.124;2022-12-18T21:36:45;180.53;;;13.17;;
5630;SDS011;2837;50.990;7.124;2022-12-18T21:39:11;175.37;;;12.50;;
5630;SDS011;2837;50.990;7.124;2022-12-18T21:41:37;175.43;;;12.70;;
5630;SDS011;2837;50.990;7.124;2022-12-18T21:44:21;183.07;;;13.70;;
5630;SDS011;2837;50.990;7.124;2022-12-18T21:46:47;179.57;;;13.80;;
5630;SDS011;2837;50.990;7.124;2022-12-18T21:49:14;181.70;;;15.73;;
5630;SDS011;2837;50.990;7.124;2022-12-18T21:51:42;182.13;;;14.20;;
5630;SDS011;2837;50.990;7.124;2022-12-18T21:54:09;182.30;;;14.97;;
5630;SDS011;2837;50.990;7.124;2022-12-18T21:56:48;175.83;;;12.47;;
5630;SDS011;2837;50.990;7.124;2022-12-18T21:59:16;173.87;;;11.70;;
